sensor_id;sensor_type;location;lat;lon;timestamp;temperature;humidity
8611;DHT22;4343;53.648;10.098;2024-03-02T00:01:51;8.40;99.90
8611;DHT22;4343;53.648;10.098;2024-03-02T00:04:16;8.40;99.90
8611;DHT22;4343;53.648;10.098;2024-03-02T00:06:42;8.40;99.90
8611;DHT22;4343;53.648;10.098;2024-03-02T00:09:08;8.40;99.90
8611;DHT22;4343;53.648;10.098;2024-03-02T00:11:34;8.40;99.90
8611;DHT22;4343;53.648;10.098;2024-03-02T00:14:01;8.40;99.90
8611;DHT22;4343;53.648;10.098;2024-03-02T00:16:29;8.30;99.90
8611;DHT22;4343;53.648;10.098;2024-03-02T00:18:55;8.30;99.90
8611;DHT22;4343;53.648;10.098;2024-03-02T00:21:24;8.30;99.90
8611;DHT22;4343;53.648;10.098;2024-03-02T00:23:52;8.30;99.90
8611;DHT22;4343;53.648;10.098;2024-03-02T00:26:18;8.30;99.90
8611;DHT22;4343;53.648;10.098;2024-03-02T00:28:44;8.40;99.90
8611;DHT22;4343;53.648;10.098;2024-03-02T00:36:05;8.30;99.90
8611;DHT22;4343;53.648;10.098;2024-03-02T00:38:32;8.30;99.90
8611;DHT22;4343;53.648;10.098;2024-03-02T00:41:04;8.30;99.90
8611;DHT22;4343;53.648;10.098;2024-03-02T00:46:11;8.30;99.90
8611;DHT22;4343;53.648;10.098;2024-03-02T00:48:36;8.30;99.90
8611;DHT22;4343;53.648;10.098;2024-03-02T00:51:02;8.30;99.90
8611;DHT22;4343;53.648;10.098;2024-03-02T00:53:31;8.30;99.90
8611;DHT22;4343;53.648;10.098;2024-03-02T00:55:58;8.20;99.90
8611;DHT22;4343;53.648;10.098;2024-03-02T00:58:24;8.20;99.90
8611;DHT22;4343;53.648;10.098;2024-03-02T01:00:50;8.20;99.90
8611;DHT22;4343;53.648;10.098;2024-03-02T01:03:15;8.20;99.90
8611;DHT22;4343;53.648;10.098;2024-03-02T01:05:41;8.20;99.90
8611;DHT22;4343;53.648;10.098;2024-03-02T01:08:07;8.20;99.90
8611;DHT22;4343;53.648;10.098;2024-03-02T01:10:33;8.20;99.90
8611;DHT22;4343;53.648;10.098;2024-03-02T01:12:58;8.20;99.90
8611;DHT22;4343;53.648;10.098;2024-03-02T01:15:23;8.20;99.90
8611;DHT22;4343;53.648;10.098;2024-03-02T01:17:49;8.10;99.90
8611;DHT22;4343;53.648;10.098;2024-03-02T01:20:14;8.20;99.90
8611;DHT22;4343;53.648;10.098;2024-03-02T01:22:40;8.20;99.90
8611;DHT22;4343;53.648;10.098;2024-03-02T01:25:05;8.20;99.90
8611;DHT22;4343;53.648;10.098;2024-03-02T01:27:31;8.10;99.90
8611;DHT22;4343;53.648;10.098;2024-03-02T01:29:56;8.10;99.90
8611;DHT22;4343;53.648;10.098;2024-03-02T01:32:22;8.10;99.90
8611;DHT22;4343;53.648;10.098;2024-03-02T01:34:47;8.10;99.90
8611;DHT22;4343;53.648;10.098;2024-03-02T01:37:12;8.10;99.90
8611;DHT22;4343;53.648;10.098;2024-03-02T01:39:38;8.10;99.90
8611;DHT22;4343;53.648;10.098;2024-03-02T01:42:04;8.10;99.90
8611;DHT22;4343;53.648;10.098;2024-03-02T01:44:29;8.10;99.90
8611;DHT22;4343;53.648;10.098;2024-03-02T01:46:55;8.10;99.90
8611;DHT22;4343;53.648;10.098;2024-03-02T01:49:20;8.10;99.90
8611;DHT22;4343;53.648;10.098;2024-03-02T01:51:45;8.10;99.90
8611;DHT22;4343;53.648;10.098;2024-03-02T01:54:11;8.10;99.90
8611;DHT22;4343;53.648;10.098;2024-03-02T01:56:36;8.00;99.90
8611;DHT22;4343;53.648;10.098;2024-03-02T01:59:02;8.00;99.90
8611;DHT22;4343;53.648;10.098;2024-03-02T02:01:28;8.00;99.90
8611;DHT22;4343;53.648;10.098;2024-03-02T02:03:54;8.00;99.90
8611;DHT22;4343;53.648;10.098;2024-03-02T02:06:22;8.00;99.90
8611;DHT22;4343;53.648;10.098;2024-03-02T02:08:47;8.00;99.90
8611;DHT22;4343;53.648;10.098;2024-03-02T02:11:16;8.00;99.90
8611;DHT22;4343;53.648;10.098;2024-03-02T02:13:42;8.00;99.90
8611;DHT22;4343;53.648;10.098;2024-03-02T02:16:07;8.00;99.90
8611;DHT22;4343;53.648;10.098;2024-03-02T02:18:33;8.00;99.90
8611;DHT22;4343;53.648;10.098;2024-03-02T02:20:59;8.00;99.90
8611;DHT22;4343;53.648;10.098;2024-03-02T02:23:24;8.00;99.90
8611;DHT22;4343;53.648;10.098;2024-03-02T02:25:50;8.00;99.90
8611;DHT22;4343;53.648;10.098;2024-03-02T02:28:15;8.00;99.90
8611;DHT22;4343;53.648;10.098;2024-03-02T02:30:40;8.00;99.90
8611;DHT22;4343;53.648;10.098;2024-03-02T02:33:06;8.00;99.90
8611;DHT22;4343;53.648;10.098;2024-03-02T02:35:31;8.00;99.90
8611;DHT22;4343;53.648;10.098;2024-03-02T02:37:57;8.00;99.90
8611;DHT22;4343;53.648;10.098;2024-03-02T02:40:24;8.00;99.90
8611;DHT22;4343;53.648;10.098;2024-03-02T02:42:49;7.90;99.90
8611;DHT22;4343;53.648;10.098;2024-03-02T02:45:15;7.90;99.90
8611;DHT22;4343;53.648;10.098;2024-03-02T02:47:41;7.90;99.90
8611;DHT22;4343;53.648;10.098;2024-03-02T02:50:06;7.90;99.90
8611;DHT22;4343;53.648;10.098;2024-03-02T02:52:36;7.90;99.90
8611;DHT22;4343;53.648;10.098;2024-03-02T02:55:05;7.90;99.90
8611;DHT22;4343;53.648;10.098;2024-03-02T02:57:34;7.90;99.90
8611;DHT22;4343;53.648;10.098;2024-03-02T03:00:07;7.90;99.90
8611;DHT22;4343;53.648;10.098;2024-03-02T03:02:36;7.90;99.90
8611;DHT22;4343;53.648;10.098;2024-03-02T03:05:01;7.90;99.90
8611;DHT22;4343;53.648;10.098;2024-03-02T03:07:27;7.90;99.90
8611;DHT22;4343;53.648;10.098;2024-03-02T03:09:52;7.90;99.90
8611;DHT22;4343;53.648;10.098;2024-03-02T03:12:18;7.90;99.90
8611;DHT22;4343;53.648;10.098;2024-03-02T03:14:43;7.80;99.90
8611;DHT22;4343;53.648;10.098;2024-03-02T03:17:09;7.80;99.90
8611;DHT22;4343;53.648;10.098;2024-03-02T03:19:34;7.90;99.90
8611;DHT22;4343;53.648;10.098;2024-03-02T03:22:01;7.80;99.90
8611;DHT22;4343;53.648;10.098;2024-03-02T03:24:26;7.90;99.90
8611;DHT22;4343;53.648;10.098;2024-03-02T03:26:52;7.80;99.90
8611;DHT22;4343;53.648;10.098;2024-03-02T03:29:17;7.80;99.90
8611;DHT22;4343;53.648;10.098;2024-03-02T03:31:43;7.80;99.90
8611;DHT22;4343;53.648;10.098;2024-03-02T03:34:08;7.80;99.90
8611;DHT22;4343;53.648;10.098;2024-03-02T03:36:33;7.80;99.90
8611;DHT22;4343;53.648;10.098;2024-03-02T03:38:59;7.80;99.90
8611;DHT22;4343;53.648;10.098;2024-03-02T03:41:27;7.80;99.90
8611;DHT22;4343;53.648;10.098;2024-03-02T03:43:52;7.80;99.90
8611;DHT22;4343;53.648;10.098;2024-03-02T03:46:18;7.80;99.90
8611;DHT22;4343;53.648;10.098;2024-03-02T03:48:43;7.80;99.90
8611;DHT22;4343;53.648;10.098;2024-03-02T03:51:08;7.80;99.90
8611;DHT22;4343;53.648;10.098;2024-03-02T03:53:34;7.80;99.90
8611;DHT22;4343;53.648;10.098;2024-03-02T03:55:59;7.80;99.90
8611;DHT22;4343;53.648;10.098;2024-03-02T03:58:25;7.80;99.90
8611;DHT22;4343;53.648;10.098;2024-03-02T04:00:50;7.80;99.90
8611;DHT22;4343;53.648;10.098;2024-03-02T04:03:16;7.80;99.90
8611;DHT22;4343;53.648;10.098;2024-03-02T04:05:41;7.70;99.90
8611;DHT22;4343;53.648;10.098;2024-03-02T04:08:06;7.70;99.90
8611;DHT22;4343;53.648;10.098;2024-03-02T04:10:32;7.80;99.90
8611;DHT22;4343;53.648;10.098;2024-03-02T04:12:59;7.70;99.90
8611;DHT22;4343;53.648;10.098;2024-03-02T04:15:24;7.70;99.90
8611;DHT22;4343;53.648;10.098;2024-03-02T04:17:50;7.70;99.90
8611;DHT22;4343;53.648;10.098;2024-03-02T04:20:15;7.70;99.90
8611;DHT22;4343;53.648;10.098;2024-03-02T04:22:41;7.70;99.90
8611;DHT22;4343;53.648;10.098;2024-03-02T04:25:06;7.70;99.90
8611;DHT22;4343;53.648;10.098;2024-03-02T04:27:32;7.70;99.90
8611;DHT22;4343;53.648;10.098;2024-03-02T04:29:58;7.70;99.90
8611;DHT22;4343;53.648;10.098;2024-03-02T04:32:26;7.70;99.90
8611;DHT22;4343;53.648;10.098;2024-03-02T04:34:51;7.70;99.90
8611;DHT22;4343;53.648;10.098;2024-03-02T04:37:17;7.70;99.90
8611;DHT22;4343;53.648;10.098;2024-03-02T04:39:42;7.70;99.90
8611;DHT22;4343;53.648;10.098;2024-03-02T04:42:08;7.70;99.90
8611;DHT22;4343;53.648;10.098;2024-03-02T04:44:33;7.70;99.90
8611;DHT22;4343;53.648;10.098;2024-03-02T04:46:58;7.70;99.90
8611;DHT22;4343;53.648;10.098;2024-03-02T04:49:24;7.70;99.90
8611;DHT22;4343;53.648;10.098;2024-03-02T04:51:49;7.70;99.90
8611;DHT22;4343;53.648;10.098;2024-03-02T04:54:15;7.70;99.90
8611;DHT22;4343;53.648;10.098;2024-03-02T04:56:41;7.70;99.90
8611;DHT22;4343;53.648;10.098;2024-03-02T04:59:10;7.60;99.90
8611;DHT22;4343;53.648;10.098;2024-03-02T05:01:35;7.70;99.90
8611;DHT22;4343;53.648;10.098;2024-03-02T05:04:01;7.60;99.90
8611;DHT22;4343;53.648;10.098;2024-03-02T05:06:26;7.60;99.90
8611;DHT22;4343;53.648;10.098;2024-03-02T05:08:52;7.60;99.90
8611;DHT22;4343;53.648;10.098;2024-03-02T05:11:17;7.60;99.90
8611;DHT22;4343;53.648;10.098;2024-03-02T05:14:02;7.60;99.90
8611;DHT22;4343;53.648;10.098;2024-03-02T05:16:27;7.60;99.90
8611;DHT22;4343;53.648;10.098;2024-03-02T05:18:53;7.60;99.90
8611;DHT22;4343;53.648;10.098;2024-03-02T05:21:18;7.60;99.90
8611;DHT22;4343;53.648;10.098;2024-03-02T05:23:43;7.60;99.90
8611;DHT22;4343;53.648;10.098;2024-03-02T05:26:09;7.60;99.90
8611;DHT22;4343;53.648;10.098;2024-03-02T05:28:36;7.50;99.90
8611;DHT22;4343;53.648;10.098;2024-03-02T05:31:02;7.50;99.90
8611;DHT22;4343;53.648;10.098;2024-03-02T05:33:27;7.50;99.90
8611;DHT22;4343;53.648;10.098;2024-03-02T05:35:53;7.50;99.90
8611;DHT22;4343;53.648;10.098;2024-03-02T05:38:19;7.50;99.90
8611;DHT22;4343;53.648;10.098;2024-03-02T05:40:44;7.50;99.90
8611;DHT22;4343;53.648;10.098;2024-03-02T05:43:09;7.50;99.90
8611;DHT22;4343;53.648;10.098;2024-03-02T05:45:35;7.50;99.90
8611;DHT22;4343;53.648;10.098;2024-03-02T05:48:00;7.50;99.90
8611;DHT22;4343;53.648;10.098;2024-03-02T05:50:26;7.50;99.90
8611;DHT22;4343;53.648;10.098;2024-03-02T05:52:52;7.50;99.90
8611;DHT22;4343;53.648;10.098;2024-03-02T05:55:17;7.50;99.90
8611;DHT22;4343;53.648;10.098;2024-03-02T05:57:42;7.50;99.90
8611;DHT22;4343;53.648;10.098;2024-03-02T06:00:23;7.50;99.90
8611;DHT22;4343;53.648;10.098;2024-03-02T06:02:49;7.50;99.90
8611;DHT22;4343;53.648;10.098;2024-03-02T06:05:14;7.50;99.90
8611;DHT22;4343;53.648;10.098;2024-03-02T06:07:40;7.50;99.90
8611;DHT22;4343;53.648;10.098;2024-03-02T06:10:06;7.40;99.90
8611;DHT22;4343;53.648;10.098;2024-03-02T06:12:32;7.50;99.90
8611;DHT22;4343;53.648;10.098;2024-03-02T06:14:58;7.40;99.90
8611;DHT22;4343;53.648;10.098;2024-03-02T06:17:23;7.40;99.90
8611;DHT22;4343;53.648;10.098;2024-03-02T06:19:49;7.40;99.90
8611;DHT22;4343;53.648;10.098;2024-03-02T06:22:14;7.40;99.90
8611;DHT22;4343;53.648;10.098;2024-03-02T06:24:40;7.40;99.90
8611;DHT22;4343;53.648;10.098;2024-03-02T06:27:05;7.40;99.90
8611;DHT22;4343;53.648;10.098;2024-03-02T06:29:34;7.40;99.90
8611;DHT22;4343;53.648;10.098;2024-03-02T06:31:59;7.40;99.90
8611;DHT22;4343;53.648;10.098;2024-03-02T06:34:25;7.40;99.90
8611;DHT22;4343;53.648;10.098;2024-03-02T06:36:50;7.40;99.90
8611;DHT22;4343;53.648;10.098;2024-03-02T06:39:16;7.40;99.90
8611;DHT22;4343;53.648;10.098;2024-03-02T06:41:41;7.40;99.90
8611;DHT22;4343;53.648;10.098;2024-03-02T06:44:08;7.40;99.90
8611;DHT22;4343;53.648;10.098;2024-03-02T06:46:33;7.40;99.90
8611;DHT22;4343;53.648;10.098;2024-03-02T06:48:59;7.30;99.90
8611;DHT22;4343;53.648;10.098;2024-03-02T06:51:24;7.30;99.90
8611;DHT22;4343;53.648;10.098;2024-03-02T06:53:49;7.40;99.90
8611;DHT22;4343;53.648;10.098;2024-03-02T06:56:15;7.30;99.90
8611;DHT22;4343;53.648;10.098;2024-03-02T06:58:40;7.40;99.90
8611;DHT22;4343;53.648;10.098;2024-03-02T07:01:08;7.30;99.90
8611;DHT22;4343;53.648;10.098;2024-03-02T07:03:33;7.40;99.90
8611;DHT22;4343;53.648;10.098;2024-03-02T07:05:59;7.30;99.90
8611;DHT22;4343;53.648;10.098;2024-03-02T07:08:24;7.30;99.90
8611;DHT22;4343;53.648;10.098;2024-03-02T07:10:49;7.40;99.90
8611;DHT22;4343;53.648;10.098;2024-03-02T07:13:15;7.40;99.90
8611;DHT22;4343;53.648;10.098;2024-03-02T07:15:40;7.40;99.90
8611;DHT22;4343;53.648;10.098;2024-03-02T07:18:24;7.40;99.90
8611;DHT22;4343;53.648;10.098;2024-03-02T07:20:50;7.40;99.90
8611;DHT22;4343;53.648;10.098;2024-03-02T07:23:15;7.40;99.90
8611;DHT22;4343;53.648;10.098;2024-03-02T07:25:41;7.40;99.90
8611;DHT22;4343;53.648;10.098;2024-03-02T07:28:06;7.40;99.90
8611;DHT22;4343;53.648;10.098;2024-03-02T07:30:32;7.40;99.90
8611;DHT22;4343;53.648;10.098;2024-03-02T07:32:59;7.40;99.90
8611;DHT22;4343;53.648;10.098;2024-03-02T07:35:24;7.50;99.90
8611;DHT22;4343;53.648;10.098;2024-03-02T07:37:53;7.50;99.90
8611;DHT22;4343;53.648;10.098;2024-03-02T07:40:19;7.50;99.90
8611;DHT22;4343;53.648;10.098;2024-03-02T07:42:45;7.50;99.90
8611;DHT22;4343;53.648;10.098;2024-03-02T07:45:10;7.50;99.90
8611;DHT22;4343;53.648;10.098;2024-03-02T07:47:36;7.60;99.90
8611;DHT22;4343;53.648;10.098;2024-03-02T07:50:01;7.60;99.90
8611;DHT22;4343;53.648;10.098;2024-03-02T07:52:27;7.60;99.90
8611;DHT22;4343;53.648;10.098;2024-03-02T07:54:52;7.70;99.90
8611;DHT22;4343;53.648;10.098;2024-03-02T07:57:18;7.70;99.90
8611;DHT22;4343;53.648;10.098;2024-03-02T07:59:43;7.70;99.90
8611;DHT22;4343;53.648;10.098;2024-03-02T08:02:08;7.80;99.90
8611;DHT22;4343;53.648;10.098;2024-03-02T08:04:34;7.80;99.90
8611;DHT22;4343;53.648;10.098;2024-03-02T08:07:01;7.80;99.90
8611;DHT22;4343;53.648;10.098;2024-03-02T08:09:26;7.90;99.90
8611;DHT22;4343;53.648;10.098;2024-03-02T08:11:52;7.80;99.90
8611;DHT22;4343;53.648;10.098;2024-03-02T08:14:17;7.90;99.90
8611;DHT22;4343;53.648;10.098;2024-03-02T08:16:43;7.90;99.90
8611;DHT22;4343;53.648;10.098;2024-03-02T08:19:08;8.00;99.90
8611;DHT22;4343;53.648;10.098;2024-03-02T08:21:34;8.00;99.90
8611;DHT22;4343;53.648;10.098;2024-03-02T08:24:00;8.00;99.90
8611;DHT22;4343;53.648;10.098;2024-03-02T08:26:26;8.10;99.90
8611;DHT22;4343;53.648;10.098;2024-03-02T08:28:54;8.20;99.90
8611;DHT22;4343;53.648;10.098;2024-03-02T08:31:19;8.20;99.90
8611;DHT22;4343;53.648;10.098;2024-03-02T08:33:45;8.30;99.90
8611;DHT22;4343;53.648;10.098;2024-03-02T08:36:10;8.40;99.90
8611;DHT22;4343;53.648;10.098;2024-03-02T08:38:36;8.50;99.90
8611;DHT22;4343;53.648;10.098;2024-03-02T08:41:01;8.50;99.90
8611;DHT22;4343;53.648;10.098;2024-03-02T08:43:28;8.60;99.90
8611;DHT22;4343;53.648;10.098;2024-03-02T08:45:54;8.60;99.90
8611;DHT22;4343;53.648;10.098;2024-03-02T08:48:19;8.70;99.90
8611;DHT22;4343;53.648;10.098;2024-03-02T08:50:46;8.70;99.90
8611;DHT22;4343;53.648;10.098;2024-03-02T08:53:11;8.80;99.90
8611;DHT22;4343;53.648;10.098;2024-03-02T08:55:37;8.80;99.90
8611;DHT22;4343;53.648;10.098;2024-03-02T08:58:02;8.80;99.90
8611;DHT22;4343;53.648;10.098;2024-03-02T09:00:28;8.80;99.90
8611;DHT22;4343;53.648;10.098;2024-03-02T09:02:54;8.90;99.90
8611;DHT22;4343;53.648;10.098;2024-03-02T09:05:19;8.90;99.90
8611;DHT22;4343;53.648;10.098;2024-03-02T09:07:45;9.00;99.90
8611;DHT22;4343;53.648;10.098;2024-03-02T09:10:10;9.00;99.90
8611;DHT22;4343;53.648;10.098;2024-03-02T09:12:36;9.10;99.90
8611;DHT22;4343;53.648;10.098;2024-03-02T09:15:02;9.10;99.90
8611;DHT22;4343;53.648;10.098;2024-03-02T09:17:31;9.10;99.90
8611;DHT22;4343;53.648;10.098;2024-03-02T09:19:56;9.20;99.90
8611;DHT22;4343;53.648;10.098;2024-03-02T09:22:22;9.20;99.90
8611;DHT22;4343;53.648;10.098;2024-03-02T09:24:48;9.30;99.90
8611;DHT22;4343;53.648;10.098;2024-03-02T09:27:14;9.40;99.90
8611;DHT22;4343;53.648;10.098;2024-03-02T09:29:39;9.50;99.90
8611;DHT22;4343;53.648;10.098;2024-03-02T09:32:05;9.60;99.90
8611;DHT22;4343;53.648;10.098;2024-03-02T09:34:31;9.60;99.90
8611;DHT22;4343;53.648;10.098;2024-03-02T09:36:57;9.80;99.90
8611;DHT22;4343;53.648;10.098;2024-03-02T09:39:23;9.90;99.90
8611;DHT22;4343;53.648;10.098;2024-03-02T09:41:48;10.10;99.90
8611;DHT22;4343;53.648;10.098;2024-03-02T09:44:14;10.20;99.90
8611;DHT22;4343;53.648;10.098;2024-03-02T09:46:39;10.40;99.90
8611;DHT22;4343;53.648;10.098;2024-03-02T09:49:05;10.50;99.90
8611;DHT22;4343;53.648;10.098;2024-03-02T09:51:31;10.60;99.90
8611;DHT22;4343;53.648;10.098;2024-03-02T09:53:56;10.70;99.90
8611;DHT22;4343;53.648;10.098;2024-03-02T09:56:22;10.80;99.90
8611;DHT22;4343;53.648;10.098;2024-03-02T09:58:47;10.90;99.90
8611;DHT22;4343;53.648;10.098;2024-03-02T10:01:13;11.00;99.90
8611;DHT22;4343;53.648;10.098;2024-03-02T10:03:38;11.10;99.90
8611;DHT22;4343;53.648;10.098;2024-03-02T10:08:45;11.30;99.90
8611;DHT22;4343;53.648;10.098;2024-03-02T10:11:11;11.40;99.90
8611;DHT22;4343;53.648;10.098;2024-03-02T10:13:49;11.50;99.90
8611;DHT22;4343;53.648;10.098;2024-03-02T10:16:14;11.60;99.90
8611;DHT22;4343;53.648;10.098;2024-03-02T10:18:39;11.70;99.90
8611;DHT22;4343;53.648;10.098;2024-03-02T10:21:14;11.80;99.90
8611;DHT22;4343;53.648;10.098;2024-03-02T10:23:40;11.90;99.90
8611;DHT22;4343;53.648;10.098;2024-03-02T10:26:16;12.00;99.90
8611;DHT22;4343;53.648;10.098;2024-03-02T10:28:48;12.10;99.90
8611;DHT22;4343;53.648;10.098;2024-03-02T10:31:13;12.20;99.90
8611;DHT22;4343;53.648;10.098;2024-03-02T10:33:39;12.30;99.90
8611;DHT22;4343;53.648;10.098;2024-03-02T10:36:05;12.40;99.90
8611;DHT22;4343;53.648;10.098;2024-03-02T10:38:30;12.50;99.90
8611;DHT22;4343;53.648;10.098;2024-03-02T10:40:57;12.50;99.90
8611;DHT22;4343;53.648;10.098;2024-03-02T10:43:25;12.70;99.90
8611;DHT22;4343;53.648;10.098;2024-03-02T10:45:51;12.70;99.90
8611;DHT22;4343;53.648;10.098;2024-03-02T10:48:17;12.70;99.90
8611;DHT22;4343;53.648;10.098;2024-03-02T10:50:42;12.80;99.90
8611;DHT22;4343;53.648;10.098;2024-03-02T10:53:08;12.80;99.90
8611;DHT22;4343;53.648;10.098;2024-03-02T10:55:33;12.90;99.90
8611;DHT22;4343;53.648;10.098;2024-03-02T10:57:59;12.90;99.90
8611;DHT22;4343;53.648;10.098;2024-03-02T11:00:26;12.90;99.90
8611;DHT22;4343;53.648;10.098;2024-03-02T11:03:02;12.90;99.90
8611;DHT22;4343;53.648;10.098;2024-03-02T11:05:31;12.90;99.90
8611;DHT22;4343;53.648;10.098;2024-03-02T11:08:12;12.90;99.90
8611;DHT22;4343;53.648;10.098;2024-03-02T11:10:41;13.00;99.90
8611;DHT22;4343;53.648;10.098;2024-03-02T11:13:11;13.00;99.90
8611;DHT22;4343;53.648;10.098;2024-03-02T11:15:37;13.00;99.90
8611;DHT22;4343;53.648;10.098;2024-03-02T11:18:05;13.10;99.90
8611;DHT22;4343;53.648;10.098;2024-03-02T11:20:37;13.10;99.90
8611;DHT22;4343;53.648;10.098;2024-03-02T11:23:04;13.20;99.90
8611;DHT22;4343;53.648;10.098;2024-03-02T11:25:31;13.20;99.90
8611;DHT22;4343;53.648;10.098;2024-03-02T11:28:00;13.20;99.90
8611;DHT22;4343;53.648;10.098;2024-03-02T11:32:58;13.20;99.90
8611;DHT22;4343;53.648;10.098;2024-03-02T11:35:27;13.20;99.90
8611;DHT22;4343;53.648;10.098;2024-03-02T11:37:56;13.20;99.90
8611;DHT22;4343;53.648;10.098;2024-03-02T11:40:30;13.20;99.90
8611;DHT22;4343;53.648;10.098;2024-03-02T11:42:56;13.20;99.90
8611;DHT22;4343;53.648;10.098;2024-03-02T11:45:22;13.10;99.90
8611;DHT22;4343;53.648;10.098;2024-03-02T11:47:51;13.10;99.90
8611;DHT22;4343;53.648;10.098;2024-03-02T11:50:29;13.00;99.90
8611;DHT22;4343;53.648;10.098;2024-03-02T11:52:55;13.00;99.90
8611;DHT22;4343;53.648;10.098;2024-03-02T11:55:21;13.00;99.90
8611;DHT22;4343;53.648;10.098;2024-03-02T11:57:47;13.00;99.90
8611;DHT22;4343;53.648;10.098;2024-03-02T12:00:17;13.00;99.90
8611;DHT22;4343;53.648;10.098;2024-03-02T12:02:42;12.90;99.90
8611;DHT22;4343;53.648;10.098;2024-03-02T12:05:13;12.90;99.90
8611;DHT22;4343;53.648;10.098;2024-03-02T12:07:38;12.90;99.90
8611;DHT22;4343;53.648;10.098;2024-03-02T12:10:03;12.90;99.90
8611;DHT22;4343;53.648;10.098;2024-03-02T12:12:30;12.90;99.90
8611;DHT22;4343;53.648;10.098;2024-03-02T12:14:56;12.90;99.90
8611;DHT22;4343;53.648;10.098;2024-03-02T12:17:22;12.80;99.90
8611;DHT22;4343;53.648;10.098;2024-03-02T12:19:48;12.80;99.90
8611;DHT22;4343;53.648;10.098;2024-03-02T12:22:13;12.80;99.90
8611;DHT22;4343;53.648;10.098;2024-03-02T12:24:39;12.80;99.90
8611;DHT22;4343;53.648;10.098;2024-03-02T12:27:05;12.80;99.90
8611;DHT22;4343;53.648;10.098;2024-03-02T12:29:30;12.80;99.90
8611;DHT22;4343;53.648;10.098;2024-03-02T12:31:56;12.80;99.90
8611;DHT22;4343;53.648;10.098;2024-03-02T12:34:22;12.90;99.90
8611;DHT22;4343;53.648;10.098;2024-03-02T12:36:48;12.90;99.90
8611;DHT22;4343;53.648;10.098;2024-03-02T12:39:15;12.90;99.90
8611;DHT22;4343;53.648;10.098;2024-03-02T12:41:41;12.90;99.90
8611;DHT22;4343;53.648;10.098;2024-03-02T12:44:07;12.90;99.90
8611;DHT22;4343;53.648;10.098;2024-03-02T12:46:32;12.90;99.90
8611;DHT22;4343;53.648;10.098;2024-03-02T12:48:58;12.90;99.90
8611;DHT22;4343;53.648;10.098;2024-03-02T12:51:24;12.90;99.90
8611;DHT22;4343;53.648;10.098;2024-03-02T12:53:59;12.90;99.90
8611;DHT22;4343;53.648;10.098;2024-03-02T12:56:25;12.90;99.90
8611;DHT22;4343;53.648;10.098;2024-03-02T12:58:54;12.90;99.90
8611;DHT22;4343;53.648;10.098;2024-03-02T13:01:19;13.00;99.90
8611;DHT22;4343;53.648;10.098;2024-03-02T13:03:45;13.00;99.90
8611;DHT22;4343;53.648;10.098;2024-03-02T13:06:13;13.00;99.90
8611;DHT22;4343;53.648;10.098;2024-03-02T13:08:38;13.10;99.90
8611;DHT22;4343;53.648;10.098;2024-03-02T13:11:04;13.10;99.90
8611;DHT22;4343;53.648;10.098;2024-03-02T13:13:31;13.10;99.90
8611;DHT22;4343;53.648;10.098;2024-03-02T13:15:57;13.00;99.90
8611;DHT22;4343;53.648;10.098;2024-03-02T13:18:22;13.10;99.90
8611;DHT22;4343;53.648;10.098;2024-03-02T13:20:48;13.10;99.90
8611;DHT22;4343;53.648;10.098;2024-03-02T13:23:13;13.10;99.90
8611;DHT22;4343;53.648;10.098;2024-03-02T13:25:39;13.10;99.90
8611;DHT22;4343;53.648;10.098;2024-03-02T13:28:05;13.10;99.90
8611;DHT22;4343;53.648;10.098;2024-03-02T13:30:30;13.00;99.90
8611;DHT22;4343;53.648;10.098;2024-03-02T13:32:56;13.00;99.90
8611;DHT22;4343;53.648;10.098;2024-03-02T13:35:21;13.00;99.90
8611;DHT22;4343;53.648;10.098;2024-03-02T13:37:47;13.00;99.90
8611;DHT22;4343;53.648;10.098;2024-03-02T13:40:12;13.00;99.90
8611;DHT22;4343;53.648;10.098;2024-03-02T13:42:42;13.00;99.90
8611;DHT22;4343;53.648;10.098;2024-03-02T13:45:08;13.00;99.90
8611;DHT22;4343;53.648;10.098;2024-03-02T13:47:34;13.00;99.90
8611;DHT22;4343;53.648;10.098;2024-03-02T13:49:59;13.00;99.90
8611;DHT22;4343;53.648;10.098;2024-03-02T13:52:24;13.00;99.90
8611;DHT22;4343;53.648;10.098;2024-03-02T13:54:51;13.00;99.90
8611;DHT22;4343;53.648;10.098;2024-03-02T13:57:17;13.00;99.90
8611;DHT22;4343;53.648;10.098;2024-03-02T13:59:45;13.00;99.90
8611;DHT22;4343;53.648;10.098;2024-03-02T14:02:11;13.00;99.90
8611;DHT22;4343;53.648;10.098;2024-03-02T14:04:37;13.00;99.90
8611;DHT22;4343;53.648;10.098;2024-03-02T14:07:03;13.00;99.90
8611;DHT22;4343;53.648;10.098;2024-03-02T14:09:28;13.00;99.90
8611;DHT22;4343;53.648;10.098;2024-03-02T14:11:54;13.10;99.90
8611;DHT22;4343;53.648;10.098;2024-03-02T14:14:20;13.30;99.90
8611;DHT22;4343;53.648;10.098;2024-03-02T14:16:46;13.40;99.90
8611;DHT22;4343;53.648;10.098;2024-03-02T14:19:11;13.60;99.90
8611;DHT22;4343;53.648;10.098;2024-03-02T14:21:40;13.80;99.90
8611;DHT22;4343;53.648;10.098;2024-03-02T14:24:06;14.00;99.90
8611;DHT22;4343;53.648;10.098;2024-03-02T14:26:35;14.20;99.90
8611;DHT22;4343;53.648;10.098;2024-03-02T14:29:01;14.40;99.90
8611;DHT22;4343;53.648;10.098;2024-03-02T14:31:27;14.60;99.90
8611;DHT22;4343;53.648;10.098;2024-03-02T14:33:53;14.80;99.90
8611;DHT22;4343;53.648;10.098;2024-03-02T14:36:18;15.00;99.90
8611;DHT22;4343;53.648;10.098;2024-03-02T14:38:43;15.20;99.90
8611;DHT22;4343;53.648;10.098;2024-03-02T14:41:09;15.50;99.90
8611;DHT22;4343;53.648;10.098;2024-03-02T14:43:34;15.60;99.90
8611;DHT22;4343;53.648;10.098;2024-03-02T14:46:00;15.80;99.90
8611;DHT22;4343;53.648;10.098;2024-03-02T14:48:25;15.90;99.90
8611;DHT22;4343;53.648;10.098;2024-03-02T14:50:51;16.00;99.90
8611;DHT22;4343;53.648;10.098;2024-03-02T14:53:17;16.10;99.90
8611;DHT22;4343;53.648;10.098;2024-03-02T14:55:43;16.10;99.90
8611;DHT22;4343;53.648;10.098;2024-03-02T14:58:08;16.10;99.90
8611;DHT22;4343;53.648;10.098;2024-03-02T15:00:35;16.10;99.90
8611;DHT22;4343;53.648;10.098;2024-03-02T15:03:00;16.00;99.90
8611;DHT22;4343;53.648;10.098;2024-03-02T15:05:27;15.90;99.90
8611;DHT22;4343;53.648;10.098;2024-03-02T15:07:52;15.80;99.90
8611;DHT22;4343;53.648;10.098;2024-03-02T15:10:18;15.80;99.90
8611;DHT22;4343;53.648;10.098;2024-03-02T15:12:44;15.70;99.90
8611;DHT22;4343;53.648;10.098;2024-03-02T15:15:10;15.60;99.90
8611;DHT22;4343;53.648;10.098;2024-03-02T15:17:36;15.60;99.90
8611;DHT22;4343;53.648;10.098;2024-03-02T15:20:02;15.40;99.90
8611;DHT22;4343;53.648;10.098;2024-03-02T15:22:29;15.40;99.90
8611;DHT22;4343;53.648;10.098;2024-03-02T15:24:55;15.30;99.90
8611;DHT22;4343;53.648;10.098;2024-03-02T15:27:20;15.20;99.90
8611;DHT22;4343;53.648;10.098;2024-03-02T15:29:46;15.20;99.90
8611;DHT22;4343;53.648;10.098;2024-03-02T15:32:13;15.00;99.90
8611;DHT22;4343;53.648;10.098;2024-03-02T15:34:38;15.00;99.90
8611;DHT22;4343;53.648;10.098;2024-03-02T15:37:04;14.90;99.90
8611;DHT22;4343;53.648;10.098;2024-03-02T15:39:29;14.80;99.90
8611;DHT22;4343;53.648;10.098;2024-03-02T15:41:55;14.70;99.90
8611;DHT22;4343;53.648;10.098;2024-03-02T15:44:20;14.60;99.90
8611;DHT22;4343;53.648;10.098;2024-03-02T15:46:46;14.50;99.90
8611;DHT22;4343;53.648;10.098;2024-03-02T15:49:11;14.40;99.90
8611;DHT22;4343;53.648;10.098;2024-03-02T15:51:36;14.30;99.90
8611;DHT22;4343;53.648;10.098;2024-03-02T15:54:06;14.30;99.90
8611;DHT22;4343;53.648;10.098;2024-03-02T15:56:32;14.20;99.90
8611;DHT22;4343;53.648;10.098;2024-03-02T15:58:57;14.10;99.90
8611;DHT22;4343;53.648;10.098;2024-03-02T16:01:23;14.00;99.90